createdAt,value
2017-12-22T00:00:31.992Z,93.20
2017-12-22T00:02:59.474Z,93.10
2017-12-22T00:05:27.708Z,93.40
2017-12-22T00:07:55.170Z,93.40
2017-12-22T00:10:22.629Z,93.40
2017-12-22T00:12:50.194Z,93.60
2017-12-22T00:15:17.656Z,93.70
2017-12-22T00:17:45.104Z,93.50
2017-12-22T00:20:12.664Z,93.60
2017-12-22T00:22:40.180Z,93.60
2017-12-22T00:25:07.628Z,93.70
2017-12-22T00:27:35.084Z,93.50
2017-12-22T00:30:02.707Z,93.80
2017-12-22T00:32:30.151Z,93.70
2017-12-22T00:34:57.712Z,93.70
2017-12-22T00:37:25.167Z,93.70
2017-12-22T00:39:52.668Z,93.60
2017-12-22T00:42:20.116Z,93.70
2017-12-22T00:44:47.582Z,93.70
2017-12-22T00:47:15.091Z,93.70
2017-12-22T00:49:44.052Z,93.60
2017-12-22T00:52:11.558Z,93.60
2017-12-22T00:54:39.813Z,93.20
2017-12-22T00:57:07.288Z,93.40
2017-12-22T00:59:35.178Z,93.60
2017-12-22T01:02:03.424Z,93.60
2017-12-22T01:04:30.934Z,93.60
2017-12-22T01:06:58.399Z,93.60
2017-12-22T01:09:25.892Z,93.70
2017-12-22T01:11:53.364Z,93.50
2017-12-22T01:14:21.584Z,93.40
2017-12-22T01:16:54.898Z,93.30
2017-12-22T01:19:22.349Z,93.80
2017-12-22T01:21:49.809Z,93.30
2017-12-22T01:24:17.275Z,93.40
2017-12-22T01:26:44.841Z,93.30
2017-12-22T01:29:12.401Z,93.40
2017-12-22T01:31:39.960Z,93.10
2017-12-22T01:34:08.201Z,93.40
2017-12-22T01:36:35.659Z,93.40
2017-12-22T01:39:03.140Z,93.30
2017-12-22T01:41:30.588Z,93.40
2017-12-22T01:43:58.067Z,93.50
2017-12-22T01:46:25.629Z,93.40
2017-12-22T01:48:53.180Z,93.20
2017-12-22T01:51:20.640Z,93.00
2017-12-22T01:53:48.100Z,93.20
2017-12-22T01:56:15.711Z,93.10
2017-12-22T01:58:43.185Z,93.30
2017-12-22T02:01:10.655Z,93.00
2017-12-22T02:03:38.125Z,92.90
2017-12-22T02:06:05.607Z,92.90
2017-12-22T02:08:33.833Z,93.10
2017-12-22T02:11:01.310Z,93.10
2017-12-22T02:13:28.868Z,93.10
2017-12-22T02:15:56.429Z,93.10
2017-12-22T02:18:24.046Z,93.10
2017-12-22T02:20:51.507Z,93.20
2017-12-22T02:23:19.014Z,93.30
2017-12-22T02:25:46.494Z,93.20
2017-12-22T02:28:14.744Z,93.10
2017-12-22T02:30:42.250Z,93.10
2017-12-22T02:33:09.703Z,93.10
2017-12-22T02:35:37.153Z,93.10
2017-12-22T02:38:04.623Z,93.10
2017-12-22T02:40:32.186Z,93.20
2017-12-22T02:42:59.698Z,93.10
2017-12-22T02:45:27.928Z,93.60
2017-12-22T02:47:55.419Z,93.20
2017-12-22T02:50:22.975Z,93.10
2017-12-22T02:52:50.432Z,93.10
2017-12-22T02:55:17.913Z,93.20
2017-12-22T02:57:46.174Z,93.10
2017-12-22T03:00:13.671Z,93.00
2017-12-22T03:02:41.134Z,93.00
2017-12-22T03:05:08.598Z,93.00
2017-12-22T03:07:36.081Z,93.20
2017-12-22T03:10:03.601Z,93.10
2017-12-22T03:12:31.105Z,93.10
2017-12-22T03:14:58.656Z,93.10
2017-12-22T03:17:26.113Z,93.00
2017-12-22T03:19:53.676Z,93.10
2017-12-22T03:22:21.134Z,93.20
2017-12-22T03:24:48.693Z,93.10
2017-12-22T03:27:16.148Z,93.20
2017-12-22T03:29:43.609Z,93.10
2017-12-22T03:32:11.069Z,93.20
2017-12-22T03:34:38.624Z,93.20
2017-12-22T03:37:06.133Z,93.20
2017-12-22T03:39:33.637Z,93.30
2017-12-22T03:42:01.191Z,93.30
2017-12-22T03:44:28.658Z,93.30
2017-12-22T03:46:56.216Z,93.30
2017-12-22T03:49:23.681Z,93.30
2017-12-22T03:51:51.235Z,93.40
2017-12-22T03:54:18.692Z,93.20
2017-12-22T03:56:46.149Z,93.40
2017-12-22T03:59:13.622Z,93.40
2017-12-22T04:01:41.837Z,93.60
2017-12-22T04:04:09.296Z,93.50
2017-12-22T04:06:36.756Z,93.40
2017-12-22T04:09:04.237Z,93.40
2017-12-22T04:11:31.716Z,93.30
2017-12-22T04:13:59.990Z,93.20
2017-12-22T04:16:27.453Z,93.20
2017-12-22T04:18:55.684Z,93.20
2017-12-22T04:21:23.161Z,93.20
2017-12-22T04:23:50.626Z,93.30
2017-12-22T04:26:18.081Z,93.20
2017-12-22T04:28:45.641Z,93.20
2017-12-22T04:31:13.101Z,93.70
2017-12-22T04:33:40.582Z,93.00
2017-12-22T04:36:08.878Z,93.30
2017-12-22T04:38:36.336Z,93.30
2017-12-22T04:41:03.794Z,93.20
2017-12-22T04:43:31.262Z,93.10
2017-12-22T04:45:58.715Z,93.10
2017-12-22T04:48:26.200Z,93.00
2017-12-22T04:50:53.682Z,92.80
2017-12-22T04:53:21.921Z,92.90
2017-12-22T04:55:49.376Z,92.90
2017-12-22T04:58:16.841Z,92.80
2017-12-22T05:00:44.367Z,92.70
2017-12-22T05:03:11.873Z,92.70
2017-12-22T05:05:39.379Z,92.20
2017-12-22T05:08:06.837Z,92.40
2017-12-22T05:10:34.306Z,92.60
2017-12-22T05:13:01.870Z,92.40
2017-12-22T05:15:29.411Z,92.40
2017-12-22T05:17:56.861Z,92.30
2017-12-22T05:20:24.373Z,92.40
2017-12-22T05:22:51.847Z,92.40
2017-12-22T05:25:20.085Z,92.50
2017-12-22T05:27:47.550Z,92.20
2017-12-22T05:30:15.790Z,92.60
2017-12-22T05:32:43.245Z,92.20
2017-12-22T05:35:10.704Z,92.30
2017-12-22T05:37:38.181Z,92.00
2017-12-22T05:40:05.650Z,91.90
2017-12-22T05:42:33.097Z,92.10
2017-12-22T05:45:00.572Z,92.00
2017-12-22T05:47:28.130Z,92.10
2017-12-22T05:49:55.589Z,91.80
2017-12-22T05:52:23.136Z,91.80
2017-12-22T05:54:50.598Z,91.70
2017-12-22T05:57:18.059Z,91.70
2017-12-22T05:59:45.613Z,91.70
2017-12-22T06:02:13.089Z,91.80
2017-12-22T06:04:40.632Z,91.80
2017-12-22T06:07:08.099Z,92.10
2017-12-22T06:09:35.561Z,91.40
2017-12-22T06:12:03.029Z,91.60
2017-12-22T06:14:31.262Z,91.60
2017-12-22T06:16:58.837Z,91.50
2017-12-22T06:19:26.294Z,91.60
2017-12-22T06:21:53.751Z,91.50
2017-12-22T06:24:21.210Z,91.50
2017-12-22T06:26:48.672Z,91.50
2017-12-22T06:29:16.132Z,91.50
2017-12-22T06:31:44.409Z,91.70
2017-12-22T06:34:11.867Z,91.70
2017-12-22T06:36:40.097Z,91.80
2017-12-22T06:39:07.558Z,91.80
2017-12-22T06:41:35.008Z,92.00
2017-12-22T06:44:02.469Z,91.80
2017-12-22T06:46:30.022Z,91.80
2017-12-22T06:48:57.480Z,91.80
2017-12-22T06:51:24.946Z,92.00
2017-12-22T06:53:52.419Z,91.90
2017-12-22T06:56:19.885Z,91.70
2017-12-22T06:58:47.350Z,91.70
2017-12-22T07:01:14.830Z,91.70
2017-12-22T07:03:42.332Z,91.80
2017-12-22T07:06:10.516Z,91.80
2017-12-22T07:08:37.993Z,91.80
2017-12-22T07:11:05.461Z,92.20
2017-12-22T07:13:33.688Z,91.90
2017-12-22T07:16:01.158Z,91.90
2017-12-22T07:18:28.685Z,91.80
2017-12-22T07:20:56.146Z,91.90
2017-12-22T07:23:23.602Z,91.80
2017-12-22T07:25:51.157Z,91.50
2017-12-22T07:28:18.613Z,91.70
2017-12-22T07:30:46.113Z,91.90
2017-12-22T07:33:13.683Z,91.80
2017-12-22T07:35:41.138Z,92.00
2017-12-22T07:38:08.597Z,91.90
2017-12-22T07:40:36.053Z,92.00
2017-12-22T07:43:03.512Z,92.10
2017-12-22T07:45:30.970Z,92.00
2017-12-22T07:47:59.249Z,91.90
2017-12-22T07:50:27.513Z,91.70
2017-12-22T07:52:54.976Z,91.60
2017-12-22T07:55:22.522Z,91.70
2017-12-22T07:57:50.090Z,91.70
2017-12-22T08:00:17.654Z,91.90
2017-12-22T08:02:46.016Z,91.80
2017-12-22T08:05:13.470Z,91.80
2017-12-22T08:07:40.957Z,91.80
2017-12-22T08:10:09.217Z,91.70
2017-12-22T08:12:36.845Z,91.70
2017-12-22T08:15:04.325Z,91.70
2017-12-22T08:17:33.358Z,91.90
2017-12-22T08:20:00.816Z,91.80
2017-12-22T08:22:28.272Z,92.00
2017-12-22T08:24:55.797Z,91.90
2017-12-22T08:27:23.254Z,92.10
2017-12-22T08:29:50.817Z,92.10
2017-12-22T08:32:18.332Z,92.40
2017-12-22T08:34:45.825Z,92.00
2017-12-22T08:37:13.393Z,91.80
2017-12-22T08:39:40.866Z,91.80
2017-12-22T08:42:09.091Z,91.70
2017-12-22T08:44:37.253Z,91.60
2017-12-22T08:47:04.710Z,91.70
2017-12-22T08:49:32.167Z,91.60
2017-12-22T08:51:59.638Z,91.70
2017-12-22T08:54:27.185Z,91.50
2017-12-22T08:56:54.645Z,91.60
2017-12-22T08:59:22.112Z,91.60
2017-12-22T09:01:49.573Z,91.50
2017-12-22T09:04:17.037Z,91.50
2017-12-22T09:06:44.505Z,91.30
2017-12-22T09:09:11.957Z,91.30
2017-12-22T09:11:40.187Z,91.40
2017-12-22T09:14:07.645Z,91.40
2017-12-22T09:16:35.102Z,91.30
2017-12-22T09:19:02.600Z,91.40
2017-12-22T09:21:30.033Z,91.30
2017-12-22T09:23:57.506Z,91.30
2017-12-22T09:26:24.961Z,91.20
2017-12-22T09:28:52.615Z,91.20
2017-12-22T09:31:20.072Z,91.10
2017-12-22T09:33:47.537Z,91.10
2017-12-22T09:36:14.998Z,91.20
2017-12-22T09:38:42.554Z,91.10
2017-12-22T09:41:10.115Z,91.00
2017-12-22T09:43:37.578Z,91.00
2017-12-22T09:46:05.138Z,91.00
2017-12-22T09:48:32.597Z,91.00
2017-12-22T09:51:00.872Z,91.60
2017-12-22T09:53:28.302Z,91.40
2017-12-22T09:55:55.769Z,90.90
2017-12-22T09:58:23.242Z,90.70
2017-12-22T10:00:50.791Z,90.90
2017-12-22T10:03:18.310Z,90.80
2017-12-22T10:05:45.764Z,91.00
2017-12-22T10:08:14.034Z,90.80
2017-12-22T10:10:41.485Z,90.70
2017-12-22T10:13:08.943Z,91.00
2017-12-22T10:15:36.457Z,91.10
2017-12-22T10:18:04.105Z,91.00
2017-12-22T10:20:31.702Z,91.10
2017-12-22T10:22:59.918Z,90.70
2017-12-22T10:25:27.389Z,90.70
2017-12-22T10:27:54.849Z,90.80
2017-12-22T10:30:22.423Z,90.70
2017-12-22T10:32:49.882Z,91.10
2017-12-22T10:35:17.353Z,91.10
2017-12-22T10:37:45.582Z,90.70
2017-12-22T10:40:13.049Z,90.60
2017-12-22T10:42:40.517Z,90.60
2017-12-22T10:45:07.981Z,90.90
2017-12-22T10:47:35.537Z,91.20
2017-12-22T10:50:02.998Z,91.10
2017-12-22T10:52:30.610Z,91.10
2017-12-22T10:54:58.113Z,91.10
2017-12-22T10:57:25.572Z,91.30
2017-12-22T10:59:53.030Z,91.10
2017-12-22T11:02:20.498Z,91.10
2017-12-22T11:04:48.715Z,91.20
2017-12-22T11:07:16.176Z,91.20
2017-12-22T11:09:43.719Z,91.20
2017-12-22T11:12:11.922Z,91.30
2017-12-22T11:14:39.456Z,91.20
2017-12-22T11:17:06.911Z,91.30
2017-12-22T11:19:34.380Z,91.30
2017-12-22T11:22:01.859Z,91.20
2017-12-22T11:24:29.486Z,91.10
2017-12-22T11:26:56.977Z,90.90
2017-12-22T11:29:24.445Z,91.00
2017-12-22T11:31:51.905Z,90.90
2017-12-22T11:34:20.917Z,91.10
2017-12-22T11:36:49.133Z,91.10
2017-12-22T11:39:16.645Z,91.10
2017-12-22T11:41:44.895Z,90.90
2017-12-22T11:44:12.360Z,90.90
2017-12-22T11:46:39.821Z,90.80
2017-12-22T11:49:08.094Z,90.80
2017-12-22T11:51:35.557Z,90.80
2017-12-22T11:54:03.105Z,90.70
2017-12-22T11:56:30.617Z,91.30
2017-12-22T11:58:58.060Z,90.80
2017-12-22T12:01:25.578Z,90.90
2017-12-22T12:03:53.132Z,90.60
2017-12-22T12:06:20.755Z,90.70
2017-12-22T12:08:48.212Z,90.90
2017-12-22T12:11:15.765Z,91.00
2017-12-22T12:13:43.235Z,90.90
2017-12-22T12:16:10.712Z,91.00
2017-12-22T12:18:38.175Z,90.80
2017-12-22T12:21:05.741Z,90.80
2017-12-22T12:23:33.302Z,90.60
2017-12-22T12:26:00.860Z,90.30
2017-12-22T12:28:28.329Z,90.10
2017-12-22T12:30:56.590Z,89.50
2017-12-22T12:33:24.102Z,89.00
2017-12-22T12:35:51.605Z,89.30
2017-12-22T12:38:19.165Z,89.80
2017-12-22T12:40:46.617Z,90.20
2017-12-22T12:43:14.111Z,88.80
2017-12-22T12:45:41.572Z,88.50
2017-12-22T12:48:09.091Z,88.90
2017-12-22T12:50:36.657Z,89.20
2017-12-22T12:53:04.122Z,89.80
2017-12-22T12:55:32.389Z,90.00
2017-12-22T12:57:59.848Z,89.20
2017-12-22T13:00:27.409Z,89.30
2017-12-22T13:02:54.873Z,89.90
2017-12-22T13:05:23.106Z,89.10
2017-12-22T13:07:50.600Z,89.10
2017-12-22T13:10:18.145Z,88.70
2017-12-22T13:12:45.623Z,87.50
2017-12-22T13:15:13.860Z,88.10
2017-12-22T13:17:41.333Z,88.10
2017-12-22T13:20:08.794Z,88.30
2017-12-22T13:22:36.512Z,87.90
2017-12-22T13:25:03.973Z,87.40
2017-12-22T13:27:31.476Z,87.80
2017-12-22T13:29:58.930Z,88.10
2017-12-22T13:32:26.393Z,87.60
2017-12-22T13:34:53.846Z,87.10
2017-12-22T13:37:21.308Z,86.50
2017-12-22T13:39:49.540Z,85.70
2017-12-22T13:42:17.041Z,85.50
2017-12-22T13:44:45.277Z,85.80
2017-12-22T13:47:12.753Z,85.70
2017-12-22T13:49:40.270Z,86.60
2017-12-22T13:52:07.765Z,87.00
2017-12-22T13:54:35.224Z,87.50
2017-12-22T13:57:02.784Z,87.70
2017-12-22T13:59:30.259Z,88.00
2017-12-22T14:01:57.718Z,87.60
2017-12-22T14:04:26.044Z,88.20
2017-12-22T14:06:53.535Z,88.00
2017-12-22T14:09:20.984Z,88.20
2017-12-22T14:11:48.549Z,88.10
2017-12-22T14:14:16.105Z,88.10
2017-12-22T14:16:43.670Z,88.40
2017-12-22T14:19:11.217Z,88.30
2017-12-22T14:21:38.677Z,88.50
2017-12-22T14:24:06.129Z,88.50
2017-12-22T14:26:33.602Z,88.80
2017-12-22T14:29:01.162Z,88.90
2017-12-22T14:31:28.625Z,88.90
2017-12-22T14:33:56.171Z,88.90
2017-12-22T14:36:23.734Z,88.90
2017-12-22T14:38:51.187Z,88.80
2017-12-22T14:41:18.645Z,88.90
2017-12-22T14:43:46.106Z,88.90
2017-12-22T14:46:13.559Z,88.70
2017-12-22T14:48:41.067Z,88.40
2017-12-22T14:51:08.573Z,88.60
2017-12-22T14:53:36.033Z,88.60
2017-12-22T14:56:03.597Z,89.00
2017-12-22T14:58:31.053Z,88.80
2017-12-22T15:00:58.658Z,88.90
2017-12-22T15:03:26.113Z,89.10
2017-12-22T15:05:53.577Z,89.30
2017-12-22T15:08:21.038Z,89.30
2017-12-22T15:10:48.489Z,89.10
2017-12-22T15:13:15.950Z,89.00
2017-12-22T15:15:43.445Z,89.10
2017-12-22T15:18:10.921Z,89.40
2017-12-22T15:20:39.232Z,90.00
2017-12-22T15:23:06.742Z,90.00
2017-12-22T15:25:34.197Z,90.00
2017-12-22T15:28:01.664Z,90.30
2017-12-22T15:30:29.921Z,90.00
2017-12-22T15:32:57.391Z,90.00
2017-12-22T15:35:25.617Z,89.30
2017-12-22T15:37:53.114Z,89.80
2017-12-22T15:40:20.582Z,90.00
2017-12-22T15:42:48.818Z,90.00
2017-12-22T15:45:16.289Z,90.00
2017-12-22T15:47:43.749Z,90.10
2017-12-22T15:50:11.320Z,90.10
2017-12-22T15:52:38.784Z,90.20
2017-12-22T15:55:07.104Z,89.90
2017-12-22T15:57:34.561Z,89.80
2017-12-22T16:00:02.070Z,89.50
2017-12-22T16:02:29.621Z,89.70
2017-12-22T16:04:57.088Z,90.00
2017-12-22T16:07:24.541Z,89.60
2017-12-22T16:09:52.011Z,89.80
2017-12-22T16:12:20.237Z,89.90
2017-12-22T16:14:47.703Z,89.90
2017-12-22T16:17:15.153Z,89.80
2017-12-22T16:19:42.620Z,90.00
2017-12-22T16:22:10.073Z,89.70
2017-12-22T16:24:37.536Z,89.90
2017-12-22T16:27:05.014Z,89.80
2017-12-22T16:29:32.516Z,89.90
2017-12-22T16:31:59.973Z,89.50
2017-12-22T16:34:27.436Z,90.00
2017-12-22T16:36:54.924Z,90.10
2017-12-22T16:39:22.446Z,90.00
2017-12-22T16:41:49.958Z,90.10
2017-12-22T16:44:18.230Z,89.90
2017-12-22T16:46:45.696Z,90.00
2017-12-22T16:49:13.157Z,90.00
2017-12-22T16:51:41.419Z,90.30
2017-12-22T16:54:08.884Z,90.20
2017-12-22T16:56:36.344Z,90.10
2017-12-22T16:59:04.585Z,90.20
2017-12-22T17:01:32.037Z,90.20
2017-12-22T17:03:59.497Z,89.90
2017-12-22T17:06:27.027Z,90.00
2017-12-22T17:08:54.494Z,89.80
2017-12-22T17:11:21.950Z,90.10
2017-12-22T17:13:49.499Z,90.00
2017-12-22T17:16:16.954Z,90.40
2017-12-22T17:18:44.458Z,90.20
2017-12-22T17:21:12.013Z,90.00
2017-12-22T17:23:40.242Z,90.00
2017-12-22T17:26:07.714Z,90.10
2017-12-22T17:28:35.174Z,89.80
2017-12-22T17:31:02.629Z,89.70
2017-12-22T17:33:30.085Z,89.80
2017-12-22T17:35:57.577Z,90.10
2017-12-22T17:38:25.138Z,90.10
2017-12-22T17:40:52.693Z,90.10
2017-12-22T17:43:20.252Z,90.10
2017-12-22T17:45:47.718Z,90.10
2017-12-22T17:48:15.270Z,90.20
2017-12-22T17:50:42.733Z,90.20
2017-12-22T17:53:10.966Z,90.20
2017-12-22T17:55:38.444Z,90.20
2017-12-22T17:58:05.901Z,90.20
2017-12-22T18:00:33.369Z,90.30
2017-12-22T18:03:00.836Z,90.20
2017-12-22T18:05:28.442Z,90.50
2017-12-22T18:07:55.956Z,90.40
2017-12-22T18:10:24.185Z,90.10
2017-12-22T18:12:51.673Z,90.20
2017-12-22T18:15:19.138Z,90.30
2017-12-22T18:17:46.686Z,90.40
2017-12-22T18:20:14.259Z,90.30
2017-12-22T18:22:41.810Z,90.30
2017-12-22T18:25:09.272Z,90.20
2017-12-22T18:27:36.733Z,90.40
2017-12-22T18:30:04.189Z,90.30
2017-12-22T18:32:31.791Z,90.20
2017-12-22T18:34:59.352Z,90.30
2017-12-22T18:37:26.808Z,90.20
2017-12-22T18:39:54.308Z,90.30
2017-12-22T18:42:21.773Z,90.10
2017-12-22T18:44:49.239Z,90.00
2017-12-22T18:47:17.504Z,90.00
2017-12-22T18:49:45.011Z,90.00
2017-12-22T18:52:12.469Z,90.00
2017-12-22T18:54:39.922Z,90.00
2017-12-22T18:57:07.381Z,90.00
2017-12-22T18:59:34.941Z,89.60
2017-12-22T19:02:02.418Z,89.70
2017-12-22T19:04:29.898Z,89.70
2017-12-22T19:06:57.457Z,89.90
2017-12-22T19:09:24.928Z,90.00
2017-12-22T19:11:52.381Z,89.60
2017-12-22T19:14:19.844Z,89.80
2017-12-22T19:16:47.294Z,90.00
2017-12-22T19:19:14.841Z,89.30
2017-12-22T19:21:42.301Z,90.00
2017-12-22T19:24:09.758Z,89.50
2017-12-22T19:26:37.370Z,89.70
2017-12-22T19:29:04.842Z,89.50
2017-12-22T19:31:32.298Z,89.30
2017-12-22T19:33:59.758Z,89.50
2017-12-22T19:36:27.218Z,88.80
2017-12-22T19:38:54.686Z,88.90
2017-12-22T19:41:22.153Z,88.30
2017-12-22T19:43:49.602Z,88.60
2017-12-22T19:46:17.170Z,88.20
2017-12-22T19:48:44.629Z,88.20
2017-12-22T19:51:12.094Z,88.20
2017-12-22T19:53:39.699Z,88.30
2017-12-22T19:56:07.230Z,88.20
2017-12-22T19:58:35.532Z,88.00
2017-12-22T20:01:02.994Z,87.90
2017-12-22T20:03:30.452Z,88.10
2017-12-22T20:05:57.945Z,88.60
2017-12-22T20:08:25.512Z,88.40
2017-12-22T20:10:52.969Z,88.80
2017-12-22T20:13:20.522Z,88.90
2017-12-22T20:15:48.138Z,89.30
2017-12-22T20:18:15.643Z,89.20
2017-12-22T20:20:44.610Z,89.50
2017-12-22T20:23:12.069Z,89.40
2017-12-22T20:25:39.528Z,89.90
2017-12-22T20:28:06.993Z,90.00
2017-12-22T20:30:34.463Z,90.10
2017-12-22T20:33:01.930Z,90.20
2017-12-22T20:35:29.426Z,90.20
2017-12-22T20:37:56.880Z,90.30
2017-12-22T20:40:24.342Z,90.40
2017-12-22T20:42:51.813Z,90.50
2017-12-22T20:45:19.301Z,90.50
2017-12-22T20:47:46.797Z,90.50
2017-12-22T20:50:14.262Z,90.40
2017-12-22T20:52:41.764Z,90.80
2017-12-22T20:55:09.257Z,90.30
2017-12-22T20:57:37.481Z,90.40
2017-12-22T21:00:04.959Z,90.40
2017-12-22T21:02:32.420Z,90.50
2017-12-22T21:04:59.973Z,90.50
2017-12-22T21:07:27.528Z,90.70
2017-12-22T21:09:56.583Z,90.80
2017-12-22T21:12:24.050Z,90.80
2017-12-22T21:14:51.616Z,91.00
2017-12-22T21:17:19.076Z,91.00
2017-12-22T21:19:46.574Z,91.20
2017-12-22T21:22:14.030Z,91.20
2017-12-22T21:24:41.497Z,91.30
2017-12-22T21:27:09.725Z,91.50
2017-12-22T21:29:37.192Z,91.50
2017-12-22T21:32:04.716Z,91.40
2017-12-22T21:34:32.173Z,91.30
2017-12-22T21:36:59.637Z,91.20
2017-12-22T21:39:27.098Z,91.40
2017-12-22T21:41:54.588Z,91.60
2017-12-22T21:44:22.041Z,91.20
2017-12-22T21:46:49.598Z,91.30
2017-12-22T21:49:17.061Z,91.20
2017-12-22T21:51:44.674Z,91.20
2017-12-22T21:54:12.189Z,91.10
2017-12-22T21:56:39.650Z,91.20
2017-12-22T21:59:07.873Z,91.20
2017-12-22T22:01:35.333Z,91.20
2017-12-22T22:04:02.826Z,91.10
2017-12-22T22:06:30.397Z,91.20
2017-12-22T22:08:58.657Z,91.20
2017-12-22T22:11:26.129Z,91.20
2017-12-22T22:13:53.675Z,91.20
2017-12-22T22:16:21.125Z,91.20
2017-12-22T22:18:48.594Z,91.20
2017-12-22T22:21:16.056Z,91.10
2017-12-22T22:23:43.525Z,91.00
2017-12-22T22:26:11.754Z,91.20
2017-12-22T22:28:39.230Z,91.20
2017-12-22T22:31:06.688Z,91.20
2017-12-22T22:33:34.149Z,91.00
2017-12-22T22:36:01.609Z,91.20
2017-12-22T22:38:29.216Z,91.10
2017-12-22T22:40:56.678Z,91.20
2017-12-22T22:43:24.293Z,91.20
2017-12-22T22:45:51.697Z,91.00
2017-12-22T22:48:19.170Z,91.00
2017-12-22T22:50:46.637Z,91.20
2017-12-22T22:53:14.210Z,91.30
2017-12-22T22:55:41.670Z,91.20
2017-12-22T22:58:09.126Z,91.20
2017-12-22T23:00:36.592Z,91.00
2017-12-22T23:03:04.826Z,91.30
2017-12-22T23:05:32.322Z,91.20
2017-12-22T23:08:00.554Z,91.30
2017-12-22T23:10:28.016Z,91.20
2017-12-22T23:12:55.497Z,91.40
2017-12-22T23:15:23.055Z,91.40
2017-12-22T23:17:50.514Z,91.40
2017-12-22T23:20:18.065Z,91.20
2017-12-22T23:22:45.528Z,91.10
2017-12-22T23:25:13.007Z,91.00
2017-12-22T23:27:41.252Z,91.00
2017-12-22T23:30:08.817Z,91.00
2017-12-22T23:32:36.282Z,91.10
2017-12-22T23:35:03.749Z,91.20
2017-12-22T23:37:32.012Z,91.50
2017-12-22T23:39:59.516Z,91.40
2017-12-22T23:42:26.972Z,91.40
2017-12-22T23:44:54.433Z,91.40
2017-12-22T23:47:21.898Z,91.50
2017-12-22T23:49:49.357Z,91.50
2017-12-22T23:52:16.825Z,91.50
2017-12-22T23:54:44.280Z,91.40
2017-12-22T23:57:11.763Z,91.50
2017-12-22T23:59:39.233Z,91.50
